Terminal Aerodrome Forecast
Issued by NWS Wilmington, OH

Current Version | Previous Version | Text Only | Print | Product List | Glossary Off
Versions: 1 2 3 4 5 6 7 8 9 10 11 12 13 14 15 16 17

935
FTUS41 KILN 212010 AAB
TAFILN
TAF AMD
KILN 212010Z 2120/2218 21012KT P6SM VCTS BKN018CB BKN027
     FM212200 25009KT P6SM BKN040
     FM220600 28008KT P6SM SCT090
     FM221300 27010KT P6SM FEW035 SCT250=

USA.gov is the U.S. government's official web portal to all federal, state and local government web resources and services.